地図

経路データ

SID SEASON NUMBER BASIN SUBBASIN NAME ISO_TIME NATURE LAT LON WMO_WIND WMO_PRES WMO_AGENCY TRACK_TYPE DIST2LAND LANDFALL IFLAG USA_AGENCY USA_ATCF_ID USA_LAT USA_LON USA_RECORD USA_STATUS USA_WIND USA_PRES USA_SSHS USA_R34_NE USA_R34_SE USA_R34_SW USA_R34_NW USA_R50_NE USA_R50_SE USA_R50_SW USA_R50_NW USA_R64_NE USA_R64_SE USA_R64_SW USA_R64_NW USA_POCI USA_ROCI USA_RMW USA_EYE TOKYO_LAT TOKYO_LON TOKYO_GRADE TOKYO_WIND TOKYO_PRES TOKYO_R50_DIR TOKYO_R50_LONG TOKYO_R50_SHORT TOKYO_R30_DIR TOKYO_R30_LONG TOKYO_R30_SHORT TOKYO_LAND CMA_LAT CMA_LON CMA_CAT CMA_WIND CMA_PRES HKO_LAT HKO_LON HKO_CAT HKO_WIND HKO_PRES NEWDELHI_LAT NEWDELHI_LON NEWDELHI_GRADE NEWDELHI_WIND NEWDELHI_PRES NEWDELHI_CI NEWDELHI_DP NEWDELHI_POCI REUNION_LAT REUNION_LON REUNION_TYPE REUNION_WIND REUNION_PRES REUNION_TNUM REUNION_CI REUNION_RMW REUNION_R34_NE REUNION_R34_SE REUNION_R34_SW REUNION_R34_NW REUNION_R50_NE REUNION_R50_SE REUNION_R50_SW REUNION_R50_NW REUNION_R64_NE REUNION_R64_SE REUNION_R64_SW REUNION_R64_NW BOM_LAT BOM_LON BOM_TYPE BOM_WIND BOM_PRES BOM_TNUM BOM_CI BOM_RMW BOM_R34_NE BOM_R34_SE BOM_R34_SW BOM_R34_NW BOM_R50_NE BOM_R50_SE BOM_R50_SW BOM_R50_NW BOM_R64_NE BOM_R64_SE BOM_R64_SW BOM_R64_NW BOM_ROCI BOM_POCI BOM_EYE BOM_POS_METHOD BOM_PRES_METHOD NADI_LAT NADI_LON NADI_CAT NADI_WIND NADI_PRES WELLINGTON_LAT WELLINGTON_LON WELLINGTON_WIND WELLINGTON_PRES DS824_LAT DS824_LON DS824_STAGE DS824_WIND DS824_PRES TD9636_LAT TD9636_LON TD9636_STAGE TD9636_WIND TD9636_PRES TD9635_LAT TD9635_LON TD9635_WIND TD9635_PRES TD9635_ROCI NEUMANN_LAT NEUMANN_LON NEUMANN_CLASS NEUMANN_WIND NEUMANN_PRES MLC_LAT MLC_LON MLC_CLASS MLC_WIND MLC_PRES USA_GUST BOM_GUST BOM_GUST_PER REUNION_GUST REUNION_GUST_PER USA_SEAHGT USA_SEARAD_NE USA_SEARAD_SE USA_SEARAD_SW USA_SEARAD_NW STORM_SPEED STORM_DIR
1980327S09082 1981 100 SI MM BETTINA 1980-11-22 06:00:00 TS -9.00000 81.8400 main 1674 1671 O____O___OO_O_ jtwc_sh SH021981 -9.00000 82.0000 -1 -9.00000 81.6000 2 9.90000 -9.00000 82.0000 TC 25 -9.00000 82.0000 1 -9.00000 81.6000 TC 30 11 271
1980327S09082 1981 100 SI MM BETTINA 1980-11-22 09:00:00 TS -8.99514 81.2757 main 1671 1669 P____P___PP_P_ SH021981 -8.99518 81.4475 -1 -9.00264 81.0075 2 -8.99518 81.4475 TC 25 -8.98006 81.4682 1 -9.00264 81.0075 TC 32 11 270
1980327S09082 1981 100 SI MM BETTINA 1980-11-22 12:00:00 TS -8.99556 80.7059 main 1669 1669 O____O___OP_O_ jtwc_sh SH021981 -9.00000 80.9000 -1 -9.00000 80.4000 99 9.90000 -9.00000 80.9000 TC 25 -8.97781 80.9293 1 -9.00000 80.4000 TC 35 11 269
1980327S09082 1981 100 SI MM BETTINA 1980-11-22 15:00:00 TS -9.01029 80.1291 main 1670 1670 P____P___PP_P_ SH021981 -9.02738 80.3574 -1 -8.99250 79.7775 99 -9.02738 80.3574 TC 25 -9.01167 80.3757 1 -8.99250 79.7775 TC 35 11 267
1980327S09082 1981 100 SI MM BETTINA 1980-11-22 18:00:00 TS -9.06000 79.5600 reunion main 1684 1684 O____O___OO_O_ jtwc_sh SH021981 -9.10000 79.8000 -1 -9.00000 79.2000 99 9.90000 -9.10000 79.8000 TC 25 -9.10000 79.8000 1 -9.00000 79.2000 TC 35 11 263
1980327S09082 1981 100 SI MM BETTINA 1980-11-22 21:00:00 TS -9.14641 79.0050 main 1690 1690 P____P___PP_P_ SH021981 -9.22747 79.2000 -1 -9.01240 78.7124 99 -9.22747 79.2000 TC 25 -9.25229 79.2002 1 -9.01240 78.7124 TC 35 11 258
1980327S09082 1981 100 SI MM BETTINA 1980-11-23 00:00:00 TS -9.28854 78.4797 reunion main 1719 1719 O____O___OP_O_ jtwc_sh SH021981 -9.40000 78.6000 -1 -9.10000 78.3000 99 9.90000 -9.40000 78.6000 TC 25 -9.44271 78.5983 1 -9.10000 78.3000 TC 35 11 250
1980327S09082 1981 100 SI MM BETTINA 1980-11-23 03:00:00 TS -9.51031 77.9835 main 1749 1749 P____P___PP_P_ SH021981 -9.61500 78.0126 -1 -9.34242 77.9351 99 -9.61500 78.0126 TC 25 -9.63673 78.0221 1 -9.34242 77.9351 TC 35 10 245
1980327S09082 1981 100 SI MM BETTINA 1980-11-23 06:00:00 TS -9.72000 77.5400 reunion main 1781 1781 O____O___OO_O_ jtwc_sh SH021981 -9.80000 77.5000 -1 -9.60000 77.6000 2 9.90000 -9.80000 77.5000 TC 25 -9.80000 77.5000 1 -9.60000 77.6000 TC 35 9 249
1980327S09082 1981 100 SI MM BETTINA 1980-11-23 09:00:00 TS -9.81011 77.1703 main 1799 1799 P____P___PP_P_ SH021981 -9.87233 77.1274 -1 -9.72241 77.2649 2 -9.87233 77.1274 TC 25 -9.86105 77.0670 1 -9.72241 77.2649 TC 35 7 259
1980327S09082 1981 100 SI MM BETTINA 1980-11-23 12:00:00 TS -9.85837 76.8179 reunion main 1819 1819 O____O___OP_O_ jtwc_sh SH021981 -9.90000 76.8000 -1 -9.80000 76.9000 99 9.90000 -9.90000 76.8000 TC 25 -9.89186 76.6893 1 -9.80000 76.9000 TC 35 8 262
1980327S09082 1981 100 SI MM BETTINA 1980-11-23 15:00:00 TS -9.91636 76.4114 main 1830 1830 P____P___PP_P_ SH021981 -9.92750 76.3999 -1 -9.90002 76.4575 99 -9.92750 76.3999 TC 25 -9.92677 76.3420 1 -9.90002 76.4575 TC 35 8 260
1980327S09082 1981 100 SI MM BETTINA 1980-11-23 18:00:00 TS -10.0000 76.0000 reunion main 1853 1853 O____O___OO_O_ jtwc_sh SH021981 -10.0000 76.0000 -1 -10.0000 76.0000 99 9.90000 -10.0000 76.0000 TC 25 -10.0000 76.0000 1 -10.0000 76.0000 TC 35 8 255
1980327S09082 1981 100 SI MM BETTINA 1980-11-23 21:00:00 TS -10.1311 75.6181 main 1876 1876 P____P___PP_P_ SH021981 -10.1774 75.6500 -1 -10.0700 75.5624 99 -10.1774 75.6500 TC 25 -10.1604 75.6655 1 -10.0700 75.5624 TC 37 8 247
1980327S09082 1981 100 SI MM BETTINA 1980-11-24 00:00:00 TS -10.3123 75.2650 reunion main 1907 1907 O____O___OP_O_ jtwc_sh SH021981 -10.4000 75.3000 -1 -10.2000 75.2000 99 9.90000 -10.4000 75.3000 TC 25 -10.3617 75.3248 1 -10.2000 75.2000 TC 40 8 236
1980327S09082 1981 100 SI MM BETTINA 1980-11-24 03:00:00 TS -10.5562 74.9823 main 1950 1950 P____P___PP_P_ SH021981 -10.5998 74.9374 -1 -10.4997 75.0449 99 -10.5998 74.9374 TC 25 -10.5821 74.9467 1 -10.4997 75.0449 TC 40 8 232
1980327S09082 1981 100 SI MM BETTINA 1980-11-24 06:00:00 TS -10.8000 74.6200 reunion main 1985 1985 O____O___OO_O_ jtwc_sh SH021981 -10.8000 74.5000 -1 -10.8000 74.8000 3 9.90000 -10.8000 74.5000 TC 25 -10.8000 74.5000 1 -10.8000 74.8000 TC 40 10 246
1980327S09082 1981 100 SI MM BETTINA 1980-11-24 09:00:00 TS -10.9703 74.0227 main 2019 1958 P____P___PP_P_ SH021981 -11.0075 73.9375 -1 -10.9228 74.1599 3 -11.0075 73.9375 TC 25 -10.9909 73.9186 1 -10.9228 74.1599 TC 40 13 256
1980327S09082 1981 100 SI MM BETTINA 1980-11-24 12:00:00 TS -11.1147 73.3345 reunion main 1949 1882 O____O___OP_O_ jtwc_sh SH021981 -11.2000 73.3000 -1 -11.0000 73.4000 99 9.90000 -11.2000 73.3000 TC 25 -11.1734 73.2727 1 -11.0000 73.4000 TC 40 14 257
1980327S09082 1981 100 SI MM BETTINA 1980-11-24 15:00:00 TS -11.2658 72.6821 main 1882 1821 P____P___PP_P_ SH021981 -11.3651 72.6275 -1 -11.1274 72.7699 99 -11.3651 72.6275 TC 25 -11.3440 72.6154 1 -11.1274 72.7699 TC 40 13 256
1980327S09082 1981 100 SI MM BETTINA 1980-11-24 18:00:00 TS -11.4200 72.0800 reunion main 1821 1763 O____O___OO_O_ jtwc_sh SH021981 -11.5000 72.0000 -1 -11.3000 72.2000 99 9.90000 -11.5000 72.0000 TC 25 -11.5000 72.0000 1 -11.3000 72.2000 TC 40 11 253
1980327S09082 1981 100 SI MM BETTINA 1980-11-24 21:00:00 TS -11.5905 71.5951 main 1763 1721 P____P___PP_P_ SH021981 -11.5998 71.5199 -1 -11.5573 71.7001 99 -11.5998 71.5199 TC 25 -11.6383 71.5358 1 -11.5573 71.7001 TC 42 10 250
1980327S09082 1981 100 SI MM BETTINA 1980-11-25 00:00:00 TS -11.7527 71.1429 reunion main 1706 1664 O____O___OP_O_ jtwc_sh SH021981 -11.7000 71.1000 -1 -11.8000 71.2000 99 9.90000 -11.7000 71.1000 TC 25 -11.7634 71.1143 1 -11.8000 71.2000 TC 45 10 252
1980327S09082 1981 100 SI MM BETTINA 1980-11-25 03:00:00 TS -11.8853 70.6521 main 1664 1613 P____P___PP_P_ SH021981 -11.8423 70.6799 -1 -11.9300 70.6074 99 -11.8423 70.6799 TC 25 -11.8819 70.6858 1 -11.9300 70.6074 TC 45 10 256
1980327S09082 1981 100 SI MM BETTINA 1980-11-25 06:00:00 TS -12.0000 70.1200 reunion main 1604 1554 O____O___OO_O_ jtwc_sh SH021981 -12.0000 70.2000 -1 -12.0000 70.0000 3 9.90000 -12.0000 70.2000 TC 25 -12.0000 70.2000 1 -12.0000 70.0000 TC 45 11 259
1980327S09082 1981 100 SI MM BETTINA 1980-11-25 09:00:00 TS -12.1030 69.5343 main 1545 1486 P____P___PP_P_ SH021981 -12.1575 69.5875 -1 -12.0273 69.4572 3 -12.1575 69.5875 TC 25 -12.1456 69.5819 1 -12.0273 69.4572 TC 45 12 260
1980327S09082 1981 100 SI MM BETTINA 1980-11-25 12:00:00 TS -12.2176 68.9006 reunion main 1486 1421 O____O___OP_O_ jtwc_sh SH021981 -12.3000 68.9000 -1 -12.1000 68.9000 99 9.90000 -12.3000 68.9000 TC 25 -12.2879 68.9029 1 -12.1000 68.9000 TC 45 13 257
1980327S09082 1981 100 SI MM BETTINA 1980-11-25 15:00:00 TS -12.3881 68.2316 main 1413 1355 P____P___PP_P_ SH021981 -12.4225 68.1925 -1 -12.3423 68.2877 99 -12.4225 68.1925 TC 25 -12.4112 68.1975 1 -12.3423 68.2877 TC 45 14 256
1980327S09082 1981 100 SI MM BETTINA 1980-11-25 18:00:00 TS -12.5400 67.5400 reunion main 1347 1291 O____O___OO_O_ jtwc_sh SH021981 -12.5000 67.5000 -1 -12.6000 67.6000 99 9.90000 -12.5000 67.5000 TC 25 -12.5000 67.5000 1 -12.6000 67.6000 TC 45 14 261
1980327S09082 1981 100 SI MM BETTINA 1980-11-25 21:00:00 TS -12.6110 66.8490 main 1282 1235 P____P___PP_P_ SH021981 -12.5147 66.8924 -1 -12.7451 66.8000 99 -12.5147 66.8924 TC 25 -12.5353 66.8602 1 -12.7451 66.8000 TC 45 13 266
1980327S09082 1981 100 SI MM BETTINA 1980-11-26 00:00:00 TS -12.6273 66.1669 reunion main 1235 1181 O____O___OP_O_ jtwc_sh SH021981 -12.5000 66.3000 -1 -12.8000 66.0000 99 9.90000 -12.5000 66.3000 TC 25 -12.5367 66.2345 1 -12.8000 66.0000 TC 45 13 269
1980327S09082 1981 100 SI MM BETTINA 1980-11-26 03:00:00 TS -12.6248 65.5113 main 1181 1137 P____P___PP_P_ SH021981 -12.4999 65.6500 -1 -12.8022 65.3201 99 -12.4999 65.6500 TC 25 -12.5197 65.6165 1 -12.8022 65.3201 TC 45 13 272
1980327S09082 1981 100 SI MM BETTINA 1980-11-26 06:00:00 TS -12.5800 64.8800 reunion main 1137 1104 O____O___OO_O_ jtwc_sh SH021981 -12.5000 65.0000 -1 -12.7000 64.7000 3 9.90000 -12.5000 65.0000 TC 25 -12.5000 65.0000 1 -12.7000 64.7000 TC 45 12 277
1980327S09082 1981 100 SI MM BETTINA 1980-11-26 09:00:00 TS -12.4826 64.2850 main 1104 1073 P____P___PP_P_ SH021981 -12.4998 64.4000 -1 -12.4572 64.1148 3 -12.4998 64.4000 TC 25 -12.4992 64.3953 1 -12.4572 64.1148 TC 47 12 280
1980327S09082 1981 100 SI MM BETTINA 1980-11-26 12:00:00 TS -12.3798 63.6775 reunion main 1073 1040 O____O___OP_O_ jtwc_sh SH021981 -12.5000 63.8000 -1 -12.2000 63.5000 99 9.90000 -12.5000 63.8000 TC 25 -12.4989 63.7874 1 -12.2000 63.5000 TC 50 13 277
1980327S09082 1981 100 SI MM BETTINA 1980-11-26 15:00:00 TS -12.3247 63.0072 main 1040 1001 P____P___PP_P_ SH021981 -12.4998 63.1650 -1 -12.0625 62.7726 99 -12.4998 63.1650 TC 25 -12.4991 63.1609 1 -12.0625 62.7726 TC 50 13 273
1980327S09082 1981 100 SI MM BETTINA 1980-11-26 18:00:00 TS -12.3000 62.3000 reunion main 1001 967 O____O___OO_O_ jtwc_sh SH021981 -12.5000 62.5000 -1 -12.0000 62.0000 99 9.90000 -12.5000 62.5000 TC 25 -12.5000 62.5000 1 -12.0000 62.0000 TC 50 14 272
1980327S09082 1981 100 SI MM BETTINA 1980-11-26 21:00:00 TS -12.2847 61.5902 main 967 937 P____P___PP_P_ SH021981 -12.4998 61.8225 -1 -11.9623 61.2499 99 -12.4998 61.8225 TC 25 -12.4994 61.8061 1 -11.9623 61.2499 TC 50 14 270
1980327S09082 1981 100 SI MM BETTINA 1980-11-27 00:00:00 TS -12.2998 60.8549 reunion main 937 909 O____O___OP_O_ jtwc_sh SH021981 -12.5000 61.1000 -1 -12.0000 60.5000 99 9.90000 -12.5000 61.1000 TC 25 -12.4991 61.0748 1 -12.0000 60.5000 TC 50 15 267
1980327S09082 1981 100 SI MM BETTINA 1980-11-27 03:00:00 TS -12.3507 60.0902 main 899 878 P____P___PP_P_ SH021981 -12.4998 60.3225 -1 -12.1273 59.7501 99 -12.4998 60.3225 TC 25 -12.4992 60.3061 1 -12.1273 59.7501 TC 50 15 265
1980327S09082 1981 100 SI MM BETTINA 1980-11-27 06:00:00 TS -12.4200 59.3000 reunion main 878 854 O____O___OO_O_ jtwc_sh SH021981 -12.5000 59.5000 -1 -12.3000 59.0000 3 9.90000 -12.5000 59.5000 TC 25 -12.5000 59.5000 1 -12.3000 59.0000 TC 50 16 265
1980327S09082 1981 100 SI MM BETTINA 1980-11-27 09:00:00 TS -12.4905 58.4942 main 854 834 P____P___PP_P_ SH021981 -12.4997 58.6650 -1 -12.4723 58.2501 3 -12.4997 58.6650 TC 25 -12.5083 58.6409 1 -12.4723 58.2501 TC 50 16 266
1980327S09082 1981 100 SI MM BETTINA 1980-11-27 12:00:00 TS -12.5431 57.6701 reunion main 834 748 O____O___OP_O_ jtwc_sh SH021981 -12.5000 57.8000 -1 -12.6000 57.5000 99 9.90000 -12.5000 57.8000 TC 25 -12.5153 57.7503 1 -12.6000 57.5000 TC 50 16 267
1980327S09082 1981 100 SI MM BETTINA 1980-11-27 15:00:00 TS -12.5667 56.8380 main 738 655 P____P___PP_P_ SH021981 -12.5074 56.8926 -1 -12.6521 56.7726 99 -12.5074 56.8926 TC 25 -12.5145 56.8595 1 -12.6521 56.7726 TC 47 16 270
1980327S09082 1981 100 SI MM BETTINA 1980-11-27 18:00:00 TS -12.5400 56.0000 reunion main 655 571 O____O___OO_O_ jtwc_sh SH021981 -12.5000 56.0000 -1 -12.6000 56.0000 99 9.90000 -12.5000 56.0000 TC 25 -12.5000 56.0000 1 -12.6000 56.0000 TC 45 17 274
1980327S09082 1981 100 SI MM BETTINA 1980-11-27 21:00:00 TS -12.4498 55.1457 main 564 492 P____P___PP_P_ SH021981 -12.4573 55.1700 -1 -12.4151 55.1071 99 -12.4573 55.1700 TC 25 -12.5045 55.1741 1 -12.4151 55.1071 TC 45 17 277
1980327S09082 1981 100 SI MM BETTINA 1980-11-28 00:00:00 TS -12.3379 54.3177 reunion main 482 409 O____O___OP_O_ jtwc_sh SH021981 -12.4000 54.4000 -1 -12.2000 54.2000 99 9.90000 -12.4000 54.4000 TC 25 -12.4896 54.3885 1 -12.2000 54.2000 TC 45 16 276
1980327S09082 1981 100 SI MM BETTINA 1980-11-28 03:00:00 TS -12.2779 53.5269 main 398 337 P____P___PP_P_ SH021981 -12.3874 53.6553 -1 -12.0925 53.3328 99 -12.3874 53.6553 TC 25 -12.4298 53.6585 1 -12.0925 53.3328 TC 45 15 276
1980327S09082 1981 100 SI MM BETTINA 1980-11-28 06:00:00 TS -12.1800 52.8400 reunion main 327 283 O____O___OO_O_ jtwc_sh SH021981 -12.3000 53.0000 -1 -12.0000 52.6000 3 9.90000 -12.3000 53.0000 TC 25 -12.3000 53.0000 1 -12.0000 52.6000 TC 45 12 285
1980327S09082 1981 100 SI MM BETTINA 1980-11-28 09:00:00 TS -11.9620 52.3236 main 283 261 P____P___PP_P_ SH021981 -12.0372 52.4699 -1 -11.8571 52.1051 3 -12.0372 52.4699 TC 25 -12.0215 52.4681 1 -11.8571 52.1051 TC 45 11 297
1980327S09082 1981 100 SI MM BETTINA 1980-11-28 12:00:00 TS -11.6966 51.8798 reunion main 261 231 O____O___OP_O_ jtwc_sh SH021981 -11.7000 52.0000 -1 -11.7000 51.7000 99 9.90000 -11.7000 52.0000 TC 25 -11.6828 51.9990 1 -11.7000 51.7000 TC 45 10 301
1980327S09082 1981 100 SI MM BETTINA 1980-11-28 15:00:00 TS -11.4384 51.4161 main 235 198 P____P___PP_P_ SH021981 -11.3696 51.5450 -1 -11.5498 51.2301 99 -11.3696 51.5450 TC 25 -11.3528 51.5305 1 -11.5498 51.2301 TC 45 11 296
1980327S09082 1981 100 SI MM BETTINA 1980-11-28 18:00:00 TS -11.2200 50.8800 reunion main 198 148 O____O___OO_O_ jtwc_sh SH021981 -11.1000 51.0000 -1 -11.4000 50.7000 99 9.90000 -11.1000 51.0000 TC 25 -11.1000 51.0000 1 -11.4000 50.7000 TC 45 13 287
1980327S09082 1981 100 SI MM BETTINA 1980-11-28 21:00:00 TS -11.0657 50.1803 main 148 125 P____P___PP_P_ SH021981 -10.9402 50.2299 -1 -11.2349 50.0799 99 -10.9402 50.2299 TC 25 -10.9780 50.2816 1 -11.2349 50.0799 TC 42 15 279
1980327S09082 1981 100 SI MM BETTINA 1980-11-29 00:00:00 TS -10.9887 49.4201 reunion main 123 123 O____O___OP_O_ jtwc_sh SH021981 -10.9000 49.4000 -1 -11.1000 49.4000 99 9.90000 -10.9000 49.4000 TC 25 -10.9437 49.5003 1 -11.1000 49.4000 TC 40 15 273
1980327S09082 1981 100 SI MM BETTINA 1980-11-29 03:00:00 TS -10.9845 48.6768 main 134 134 P____P___PP_P_ SH021981 -10.9549 48.6551 -1 -11.0126 48.6775 99 -10.9549 48.6551 TC 25 -10.9874 48.7188 1 -11.0126 48.6775 TC 40 14 267
1980327S09082 1981 100 SI MM BETTINA 1980-11-29 06:00:00 TS -11.0600 48.0000 reunion main 172 172 O____O___OO_O_ jtwc_sh SH021981 -11.1000 48.0000 -1 -11.0000 48.0000 3 9.90000 -11.1000 48.0000 TC 25 -11.1000 48.0000 1 -11.0000 48.0000 TC 40 12 261
1980327S09082 1981 100 SI MM BETTINA 1980-11-29 09:00:00 TS -11.1773 47.4608 main 203 203 P____P___PP_P_ SH021981 -11.2772 47.4699 -1 -11.0323 47.4699 3 -11.2772 47.4699 TC 25 -11.2675 47.4246 1 -11.0323 47.4699 TC 37 10 252
1980327S09082 1981 100 SI MM BETTINA 1980-11-29 12:00:00 TS -11.3793 46.9836 reunion main 231 231 O____O___OP_O_ jtwc_sh SH021981 -11.5000 47.0000 -1 -11.2000 47.0000 99 9.90000 -11.5000 47.0000 TC 25 -11.4963 46.9181 1 -11.2000 47.0000 TC 35 11 242
1980327S09082 1981 100 SI MM BETTINA 1980-11-29 15:00:00 TS -11.6783 46.4906 main 265 265 P____P___PP_P_ SH021981 -11.7500 46.4925 -1 -11.5699 46.5076 99 -11.7500 46.4925 TC 25 -11.7521 46.4525 1 -11.5699 46.5076 TC 35 11 237
1980327S09082 1981 100 SI MM BETTINA 1980-11-29 18:00:00 TS -12.0000 46.0000 reunion main 280 280 O____O___OO_O_ jtwc_sh SH021981 -12.0000 46.0000 -1 -12.0000 46.0000 99 9.90000 -12.0000 46.0000 TC 25 -12.0000 46.0000 1 -12.0000 46.0000 TC 35 11 238
1980327S09082 1981 100 SI MM BETTINA 1980-11-29 21:00:00 TS -12.2700 45.5142 main 303 303 P____P___PP_P_ SH021981 -12.2148 45.5499 -1 -12.3373 45.4724 99 -12.2148 45.5499 TC 25 -12.2458 45.5263 1 -12.3373 45.4724 TC 35 11 243
1980327S09082 1981 100 SI MM BETTINA 1980-11-30 00:00:00 TS -12.4939 45.0117 reunion main 341 341 O____O___OP_O_ jtwc_sh SH021981 -12.4000 45.1000 -1 -12.6000 44.9000 99 9.90000 -12.4000 45.1000 TC 25 -12.4694 45.0582 1 -12.6000 44.9000 TC 35 11 248
1980327S09082 1981 100 SI MM BETTINA 1980-11-30 03:00:00 TS -12.6887 44.4483 main 377 358 P____P___PP_P_ SH021981 -12.6024 44.6077 -1 -12.8027 44.2200 99 -12.6024 44.6077 TC 25 -12.6333 44.5859 1 -12.8027 44.2200 TC 35 11 255
1980327S09082 1981 100 SI MM BETTINA 1980-11-30 06:00:00 TS -12.7800 43.9000 reunion main 358 314 O____O___OO_O_ jtwc_sh SH021981 -12.7000 44.1000 -1 -12.9000 43.6000 3 9.90000 -12.7000 44.1000 TC 25 -12.7000 44.1000 1 -12.9000 43.6000 TC 35 10 268
1980327S09082 1981 100 SI MM BETTINA 1980-11-30 09:00:00 TS -12.7199 43.4404 main 303 260 P____P___PP_P_ SH021981 -12.6024 43.6073 -1 -12.8947 43.2199 3 -12.6024 43.6073 TC 25 -12.6056 43.5476 1 -12.8947 43.2199 TC 35 9 284
1980327S09082 1981 100 SI MM BETTINA 1980-11-30 12:00:00 TS -12.5636 42.9977 reunion main 260 207 O____O___OP_O_ jtwc_sh SH021981 -12.4000 43.1000 -1 -12.8000 42.9000 99 9.90000 -12.4000 43.1000 TC 25 -12.4180 42.9885 1 -12.8000 42.9000 TC 35 10 290
1980327S09082 1981 100 SI MM BETTINA 1980-11-30 15:00:00 TS -12.3823 42.4830 main 207 153 P____P___PP_P_ SH021981 -12.1851 42.5274 -1 -12.6726 42.4500 99 -12.1851 42.5274 TC 25 -12.1963 42.4602 1 -12.6726 42.4500 TC 35 10 290
1980327S09082 1981 100 SI MM BETTINA 1980-11-30 18:00:00 TS -12.2000 42.0000 reunion main 153 109 O____O___OO_I_ jtwc_sh SH021981 -12.0000 42.0000 -1 -12.5000 42.0000 99 9.90000 -12.0000 42.0000 TC 25 -12.0000 42.0000 1 -12.5000 42.0000 TC 35 9 291
1980327S09082 1981 100 SI MM BETTINA 1980-11-30 21:00:00 TS -12.0600 41.6228 main 109 76 P____P___PP_P_ SH021981 -11.9274 41.5977 -1 -12.2849 41.6425 99 -11.9274 41.5977 TC 25 -11.8753 41.6339 1 -12.2849 41.6425 TC 35 7 288
1980327S09082 1981 100 SI MM BETTINA 1980-12-01 00:00:00 TS -11.9791 41.3081 reunion main 76 44 O____O___OP_O_ jtwc_sh SH021981 -11.9000 41.3000 -1 -12.1000 41.3000 99 9.90000 -11.9000 41.3000 TC 25 -11.8146 41.3460 1 -12.1000 41.3000 TC 35 6 281
1980327S09082 1981 100 SI MM BETTINA 1980-12-01 03:00:00 TS -11.9416 41.0029 main 44 15 P____P___PP_P_ SH021981 -11.8575 41.0799 -1 -12.0198 40.9376 99 -11.8575 41.0799 TC 25 -11.7967 41.1100 1 -12.0198 40.9376 TC 35 7 274
1980327S09082 1981 100 SI MM BETTINA 1980-12-01 06:00:00 TS -11.9333 40.6333 reunion main 10 0 O____O___OO_O_ jtwc_sh SH021981 -11.8000 40.9000 -1 -12.0000 40.5000 3 9.90000 -11.8000 40.9000 TC 25 -11.8000 40.9000 1 -12.0000 40.5000 TC 35 10 267
1980327S09082 1981 100 SI MM BETTINA 1980-12-01 09:00:00 TS -11.9979 39.9375 main 0 0 _____P______P_ SH021981 -1 -11.9979 39.9375 3 TC 1 -11.9979 39.9375 TC 32 13 267
1980327S09082 1981 100 SI MM BETTINA 1980-12-01 12:00:00 TS -12.0000 39.3000 reunion main 0 _____O______O_ -1 -12.0000 39.3000 6 9.90000 1 -12.0000 39.3000 TC 30 12 270

IBTrACS Databaseについて

本データベースは、米国NOAAが公開する1842年以降の世界の熱帯低気圧のベストトラックデータアーカイブInternational Best Track Archive for Climate Stewardship (IBTrACS)を、ウェブで閲覧しやすい形式に変換したものです。

最終更新日:2021-10-25